Latest Weather Observations for Bickley

IDW60801

Issued at 4:05 pm WST Saturday 25 October 2014 (issued every 30 minutes, with the page automatically refreshed every 10 minutes)

About weather observations | Map of weather stations | Latest weather observations for WA | Other Formats
Station Details ID: 009240 Name: BICKLEY Lat: -32.01 Lon: 116.14 Height: 384.0 m
Data from the previous 72 hours. | See also: Recent months at Bickley
Date/Time
WST
Temp
°C
App
Temp
°C
Dew
Point
Rel
Hum
%
Delta-T
°C
Wind Press
QNH
hPa
Press
MSL
hPa
Rain
since 9 am
mm
Dir
 
Spd
km/h
Gust
km/h
Spd
kts
Gust
kts
25/04:00pm 17.1 - 13.2 78 2.2 - - - - - - - 0.0
25/03:30pm 17.5 - 12.6 73 2.8 - - - - - - - 0.0
25/03:00pm 17.7 - 11.7 68 3.3 - - - - - - - 0.0
25/02:30pm 18.0 - 11.6 66 3.6 - - - - - - - 0.0
25/02:00pm 18.3 - 11.6 65 3.7 - - - - - - - 0.0
25/01:30pm 17.6 - 12.3 71 3.0 - - - - - - - 0.0
25/01:00pm 17.2 - 11.9 71 3.0 - - - - - - - 0.0
25/12:30pm 17.0 - 12.3 74 2.6 - - - - - - - 0.0
25/12:00pm 18.0 - 12.0 68 3.4 - - - - - - - 0.0
25/11:30am 18.1 - 11.9 67 3.5 - - - - - - - 0.0
25/11:00am 17.7 - 11.7 68 3.3 - - - - - - - 0.0
25/10:30am 17.5 - 11.3 67 3.4 - - - - - - - 0.0
25/10:00am 17.3 - 11.1 67 3.4 - - - - - - - 0.0
25/09:30am 16.8 - 11.5 71 2.9 - - - - - - - 0.0
25/09:00am 16.3 - 12.3 77 2.2 - - - - - - - 0.2
25/08:30am 15.7 - 13.0 84 1.5 - - - - - - - 0.2
25/08:00am 15.8 - 13.5 86 1.3 - - - - - - - 0.2
25/07:30am 14.6 - 14.1 97 0.3 - - - - - - - 0.2
25/07:00am 14.1 - 13.9 99 0.1 - - - - - - - 0.2
25/06:30am 13.9 - 13.7 99 0.1 - - - - - - - 0.2
25/06:00am 13.8 - 13.6 99 0.1 - - - - - - - 0.0
25/05:30am 13.9 - 13.7 99 0.1 - - - - - - - 0.0
25/05:00am 13.6 - 13.4 99 0.1 - - - - - - - 0.0
25/04:30am 13.4 - 13.2 99 0.1 - - - - - - - 0.0
25/04:00am 13.6 - 13.4 99 0.1 - - - - - - - 0.0
25/03:30am 13.3 - 13.1 99 0.1 - - - - - - - 0.0
25/03:00am 12.3 - 12.1 99 0.1 - - - - - - - 0.0
25/02:30am 12.5 - 12.3 99 0.1 - - - - - - - 0.0
25/02:00am 12.8 - 12.6 99 0.1 - - - - - - - 0.0
25/01:30am 12.4 - 11.9 97 0.3 - - - - - - - 0.0
25/01:00am 12.7 - 12.2 97 0.3 - - - - - - - 0.0
25/12:30am 12.8 - 11.9 94 0.5 - - - - - - - 0.0
25/12:00am 12.9 - 11.3 90 0.9 - - - - - - - 0.0
 
Date/Time
WST
Temp
°C
App
Temp
°C
Dew
Point
Rel
Hum
%
Delta-T
°C
Wind Press
QNH
hPa
Press
MSL
hPa
Rain
since 9 am
mm
Dir
 
Spd
km/h
Gust
km/h
Spd
kts
Gust
kts
24/11:30pm 13.3 - 11.2 87 1.1 - - - - - - - 0.0
24/11:00pm 13.4 - 11.5 88 1.0 - - - - - - - 0.0
24/10:30pm 13.4 - 11.1 86 1.2 - - - - - - - 0.0
24/10:00pm 13.6 - 10.9 84 1.4 - - - - - - - 0.0
24/09:30pm 13.8 - 10.8 82 1.6 - - - - - - - 0.0
24/09:00pm 14.1 - 10.7 80 1.8 - - - - - - - 0.0
24/08:30pm 14.5 - 10.7 78 2.0 - - - - - - - 0.0
24/08:00pm 14.9 - 10.5 75 2.4 - - - - - - - 0.0
24/07:30pm 15.6 - 10.6 72 2.7 - - - - - - - 0.0
24/07:00pm 16.3 - 10.6 69 3.1 - - - - - - - 0.0
24/06:30pm 17.2 - 10.8 66 3.5 - - - - - - - 0.0
24/06:00pm 18.7 - 11.3 62 4.1 - - - - - - - 0.0
24/05:30pm 20.2 - 11.9 59 4.7 - - - - - - - 0.0
24/05:00pm 21.5 - 12.1 55 5.4 - - - - - - - 0.0
24/04:30pm 21.8 - 12.1 54 5.6 - - - - - - - 0.0
24/04:00pm 22.6 - 12.5 53 5.8 - - - - - - - 0.0
24/03:30pm 23.4 - 12.7 51 6.2 - - - - - - - 0.0
24/03:00pm 23.3 - 11.7 48 6.6 - - - - - - - 0.0
24/02:30pm 23.4 - 10.5 44 7.2 - - - - - - - 0.0
24/02:00pm 23.2 - 11.3 47 6.8 - - - - - - - 0.0
24/01:30pm 23.0 - 11.4 48 6.6 - - - - - - - 0.0
24/01:00pm 22.0 - 10.5 48 6.4 - - - - - - - 0.0
24/12:30pm 21.3 - 11.1 52 5.7 - - - - - - - 0.0
24/12:00pm 21.8 - 11.5 52 5.8 - - - - - - - 0.0
24/11:30am 21.0 - 11.9 56 5.2 - - - - - - - 0.0
24/11:00am 20.3 - 11.5 57 5.0 - - - - - - - 0.0
24/10:30am 20.5 - 12.0 58 4.8 - - - - - - - 0.0
24/10:00am 18.7 - 10.8 60 4.4 - - - - - - - 0.0
24/09:30am 18.1 - 11.4 65 3.7 - - - - - - - 0.0
24/09:00am 17.7 - 11.3 66 3.5 - - - - - - - 0.0
24/08:30am 16.4 - 11.1 71 2.9 - - - - - - - 0.0
24/08:00am 15.2 - 10.8 75 2.4 - - - - - - - 0.0
24/07:30am 13.3 - 10.1 81 1.7 - - - - - - - 0.0
24/07:00am 12.4 - 10.3 87 1.1 - - - - - - - 0.0
24/06:30am 11.1 - 9.7 91 0.7 - - - - - - - 0.0
24/06:00am 10.8 - 10.0 95 0.4 - - - - - - - 0.0
24/05:30am 10.7 - 9.8 94 0.5 - - - - - - - 0.0
24/05:00am 11.1 - 9.7 91 0.7 - - - - - - - 0.0
24/04:30am 11.3 - 10.0 92 0.7 - - - - - - - 0.0
24/04:00am 11.4 - 10.0 91 0.7 - - - - - - - 0.0
24/03:30am 11.7 - 10.3 91 0.7 - - - - - - - 0.0
24/03:00am 11.9 - 10.5 91 0.7 - - - - - - - 0.0
24/02:30am 11.8 - 10.4 91 0.7 - - - - - - - 0.0
24/02:00am 11.6 - 10.2 91 0.7 - - - - - - - 0.0
24/01:30am 11.9 - 10.6 92 0.7 - - - - - - - 0.0
24/01:00am 11.9 - 11.4 97 0.3 - - - - - - - 0.0
24/12:30am 12.2 - 12.0 99 0.1 - - - - - - - 0.0
24/12:00am 12.4 - 12.2 99 0.1 - - - - - - - 0.0
 
Date/Time
WST
Temp
°C
App
Temp
°C
Dew
Point
Rel
Hum
%
Delta-T
°C
Wind Press
QNH
hPa
Press
MSL
hPa
Rain
since 9 am
mm
Dir
 
Spd
km/h
Gust
km/h
Spd
kts
Gust
kts
23/11:30pm 12.4 - 12.1 98 0.2 - - - - - - - 0.0
23/11:00pm 12.7 - 12.2 97 0.3 - - - - - - - 0.0
23/10:30pm 12.9 - 12.0 94 0.5 - - - - - - - 0.0
23/10:00pm 13.2 - 11.8 91 0.8 - - - - - - - 0.0
23/09:30pm 13.4 - 11.8 90 0.9 - - - - - - - 0.0
23/09:00pm 13.3 - 12.0 92 0.7 - - - - - - - 0.0
23/08:30pm 13.5 - 12.1 91 0.8 - - - - - - - 0.0
23/08:00pm 13.7 - 12.1 90 0.9 - - - - - - - 0.0
23/07:30pm 14.0 - 11.7 86 1.3 - - - - - - - 0.0
23/07:00pm 14.4 - 10.8 79 1.9 - - - - - - - 0.0
23/06:30pm 15.1 - 10.1 72 2.7 - - - - - - - 0.0
23/06:00pm 16.4 - 11.3 72 2.8 - - - - - - - 0.0
23/05:30pm 17.3 - 12.0 71 3.0 - - - - - - - 0.0
23/05:00pm 17.1 - 12.6 75 2.5 - - - - - - - 0.0
23/04:30pm 17.8 - 11.8 68 3.4 - - - - - - - 0.0
23/04:00pm 18.8 - 12.8 68 3.4 - - - - - - - 0.0
23/03:30pm 17.8 - 12.7 72 2.9 - - - - - - - 0.0
23/03:00pm 18.6 - 12.1 66 3.7 - - - - - - - 0.0
23/02:30pm 19.0 - 11.1 60 4.4 - - - - - - - 0.0
23/02:00pm 19.3 - 11.3 60 4.5 - - - - - - - 0.0
23/01:30pm 19.9 - 11.9 60 4.5 - - - - - - - 0.0
23/01:00pm 19.1 - 12.1 64 4.0 - - - - - - - 0.0
23/12:30pm 19.4 - 12.7 65 3.8 - - - - - - - 0.0
23/12:00pm 17.6 - 12.1 70 3.1 - - - - - - - 0.0
23/11:30am 17.9 - 14.0 78 2.3 - - - - - - - 0.0
23/11:00am 17.4 - 13.7 79 2.1 - - - - - - - 0.0
23/10:30am 15.3 - 13.3 88 1.1 - - - - - - - 0.0
23/10:00am 18.6 - 12.8 69 3.3 - - - - - - - 0.0
23/09:30am 17.2 - 12.5 74 2.7 - - - - - - - 0.0
23/09:00am 17.1 - 13.6 80 2.0 - - - - - - - 1.6
23/08:30am 16.3 - 13.8 85 1.4 - - - - - - - 1.6
23/08:00am 14.7 - 13.9 95 0.5 - - - - - - - 1.6
23/07:30am 14.4 - 14.4 100 0.0 - - - - - - - 1.6
23/07:00am 14.0 - 14.0 100 0.0 - - - - - - - 1.6
23/06:30am 13.9 - 13.9 100 0.0 - - - - - - - 1.6
23/06:00am 13.5 - 13.5 100 0.0 - - - - - - - 1.6
23/05:30am 13.4 - 13.4 100 0.0 - - - - - - - 1.4
23/05:00am 13.2 - 13.2 100 0.0 - - - - - - - 1.4
23/04:30am 12.9 - 12.7 99 0.1 - - - - - - - 1.4
23/04:00am 13.6 - 13.6 100 0.0 - - - - - - - 1.4
23/03:30am 13.6 - 13.6 100 0.0 - - - - - - - 1.2
23/03:00am 13.7 - 13.5 99 0.1 - - - - - - - 1.2
23/02:30am 13.6 - 13.4 99 0.1 - - - - - - - 1.2
23/02:00am 13.4 - 13.2 99 0.1 - - - - - - - 1.2
23/01:30am 12.6 - 12.4 99 0.1 - - - - - - - 1.2
23/01:00am 12.5 - 12.3 99 0.1 - - - - - - - 1.2
23/12:30am 13.3 - 13.0 98 0.2 - - - - - - - 1.2
23/12:00am 13.3 - 13.1 99 0.1 - - - - - - - 1.2
 
Date/Time
WST
Temp
°C
App
Temp
°C
Dew
Point
Rel
Hum
%
Delta-T
°C
Wind Press
QNH
hPa
Press
MSL
hPa
Rain
since 9 am
mm
Dir
 
Spd
km/h
Gust
km/h
Spd
kts
Gust
kts
22/11:30pm 13.4 - 13.2 99 0.1 - - - - - - - 1.2
22/11:00pm 13.1 - 12.3 95 0.4 - - - - - - - 1.0
22/10:30pm 14.4 - 11.6 83 1.5 - - - - - - - 0.0
22/10:00pm 14.8 - 12.3 85 1.4 - - - - - - - 0.0
22/09:30pm 15.2 - 13.7 91 0.9 - - - - - - - 0.0
22/09:00pm 14.8 - 13.5 92 0.7 - - - - - - - 0.0
22/08:30pm 14.8 - 13.3 91 0.8 - - - - - - - 0.0
22/08:00pm 15.0 - 13.2 89 1.0 - - - - - - - 0.0
22/07:30pm 15.2 - 13.1 87 1.2 - - - - - - - 0.0
22/07:00pm 15.6 - 12.5 82 1.7 - - - - - - - 0.0
22/06:30pm 16.2 - 12.9 81 1.9 - - - - - - - 0.0
22/06:00pm 17.0 - 13.7 81 1.9 - - - - - - - 0.0
22/05:30pm 17.7 - 13.8 78 2.3 - - - - - - - 0.0
22/05:00pm 19.2 - 11.0 59 4.5 - - - - - - - 0.0
22/04:30pm 19.0 - 14.7 76 2.5 - - - - - - - 0.0

Other Formats:

Comma delimited format used in spreadsheet applications
http://www.bom.gov.au/fwo/IDW60801/IDW60801.95610.axf

JavaScript Object Notation format (JSON) in row-major order
http://www.bom.gov.au/fwo/IDW60801/IDW60801.95610.json